createdAt,value
2017-12-27T00:00:48.086Z,4.90
2017-12-27T00:03:21.284Z,4.90
2017-12-27T00:05:54.506Z,4.90
2017-12-27T00:08:27.583Z,5.00
2017-12-27T00:11:00.791Z,5.00
2017-12-27T00:13:34.636Z,5.00
2017-12-27T00:16:07.733Z,4.90
2017-12-27T00:18:41.724Z,4.90
2017-12-27T00:21:14.903Z,4.80
2017-12-27T00:23:48.902Z,4.90
2017-12-27T00:26:22.176Z,4.90
2017-12-27T00:28:55.339Z,4.90
2017-12-27T00:31:35.263Z,4.90
2017-12-27T00:34:02.731Z,4.90
2017-12-27T00:36:30.199Z,4.70
2017-12-27T00:38:57.667Z,4.70
2017-12-27T00:41:25.129Z,4.70
2017-12-27T00:43:52.590Z,4.70
2017-12-27T00:46:20.836Z,4.60
2017-12-27T00:48:49.069Z,4.60
2017-12-27T00:51:17.313Z,4.70
2017-12-27T00:53:44.789Z,4.60
2017-12-27T00:56:13.035Z,4.60
2017-12-27T00:58:40.499Z,4.60
2017-12-27T01:01:08.730Z,4.40
2017-12-27T01:20:54.828Z,4.30
2017-12-27T01:23:23.091Z,4.40
2017-12-27T01:25:50.559Z,4.40
2017-12-27T01:28:18.030Z,4.30
2017-12-27T01:30:45.486Z,4.40
2017-12-27T01:33:12.960Z,4.40
2017-12-27T01:35:41.202Z,4.40
2017-12-27T01:38:08.674Z,4.40
2017-12-27T01:40:36.156Z,4.30
2017-12-27T01:43:03.601Z,4.30
2017-12-27T01:45:31.073Z,4.30
2017-12-27T01:47:58.525Z,4.30
2017-12-27T01:50:26.002Z,4.30
2017-12-27T01:52:53.462Z,4.30
2017-12-27T01:55:21.710Z,4.30
2017-12-27T01:57:49.178Z,4.30
2017-12-27T02:00:16.649Z,4.30
2017-12-27T02:02:44.966Z,4.30
2017-12-27T02:05:12.429Z,4.40
2017-12-27T02:07:40.668Z,4.30
2017-12-27T02:10:08.156Z,4.30
2017-12-27T02:12:35.635Z,4.40
2017-12-27T02:15:03.884Z,4.30
2017-12-27T02:17:31.347Z,4.30
2017-12-27T02:19:58.812Z,4.40
2017-12-27T02:22:26.282Z,4.40
2017-12-27T02:24:54.550Z,4.30
2017-12-27T02:27:22.021Z,4.30
2017-12-27T02:29:49.528Z,4.30
2017-12-27T02:32:17.155Z,4.30
2017-12-27T02:34:44.625Z,4.30
2017-12-27T02:37:12.093Z,4.30
2017-12-27T02:42:58.073Z,4.40
2017-12-27T02:45:25.553Z,4.30
2017-12-27T02:47:53.005Z,4.30
2017-12-27T02:50:20.490Z,4.30
2017-12-27T02:52:47.949Z,4.30
2017-12-27T02:55:15.420Z,4.30
2017-12-27T02:57:42.881Z,4.30
2017-12-27T03:00:11.158Z,4.20
2017-12-27T03:02:39.391Z,4.20
2017-12-27T03:05:07.623Z,4.10
2017-12-27T03:07:35.847Z,4.20
2017-12-27T03:10:04.083Z,4.10
2017-12-27T03:12:32.306Z,4.10
2017-12-27T03:15:00.550Z,4.10
2017-12-27T03:17:28.013Z,4.10
2017-12-27T03:19:56.243Z,4.00
2017-12-27T03:22:23.704Z,4.00
2017-12-27T03:24:51.183Z,4.00
2017-12-27T03:27:18.632Z,4.10
2017-12-27T03:29:46.108Z,4.00
2017-12-27T03:32:13.568Z,4.10
2017-12-27T03:34:41.057Z,4.10
2017-12-27T03:37:09.308Z,4.10
2017-12-27T03:39:36.780Z,4.10
2017-12-27T03:42:04.241Z,4.10
2017-12-27T03:44:31.705Z,4.20
2017-12-27T03:46:59.176Z,4.20
2017-12-27T03:49:26.631Z,4.20
2017-12-27T03:51:54.110Z,4.20
2017-12-27T03:54:22.340Z,4.10
2017-12-27T03:56:49.826Z,4.10
2017-12-27T03:59:17.292Z,4.20
2017-12-27T04:01:44.773Z,4.20
2017-12-27T04:04:12.992Z,4.20
2017-12-27T04:06:40.470Z,4.20
2017-12-27T04:09:07.932Z,4.20
2017-12-27T04:11:35.431Z,4.20
2017-12-27T04:14:02.885Z,4.30
2017-12-27T04:16:30.360Z,4.30
2017-12-27T04:18:57.817Z,4.30
2017-12-27T04:21:25.299Z,4.40
2017-12-27T04:41:10.339Z,4.40
2017-12-27T04:43:37.802Z,4.40
2017-12-27T04:46:05.265Z,4.40
2017-12-27T04:48:32.735Z,4.40
2017-12-27T04:51:00.193Z,4.40
2017-12-27T04:53:27.675Z,4.40
2017-12-27T04:55:55.133Z,4.30
2017-12-27T04:58:22.616Z,4.40
2017-12-27T05:00:50.076Z,4.30
2017-12-27T05:03:17.543Z,4.40
2017-12-27T05:05:45.009Z,4.50
2017-12-27T05:08:12.486Z,4.50
2017-12-27T05:10:39.948Z,4.40
2017-12-27T05:13:07.431Z,4.40
2017-12-27T05:15:35.662Z,4.50
2017-12-27T05:18:03.138Z,4.50
2017-12-27T05:20:30.598Z,4.50
2017-12-27T05:22:58.070Z,4.50
2017-12-27T05:25:25.542Z,4.50
2017-12-27T05:27:53.010Z,4.60
2017-12-27T05:30:21.249Z,4.60
2017-12-27T05:32:48.737Z,4.60
2017-12-27T05:35:16.193Z,4.70
2017-12-27T05:37:44.432Z,4.70
2017-12-27T05:40:11.936Z,4.60
2017-12-27T05:42:39.416Z,4.60
2017-12-27T05:45:06.888Z,4.60
2017-12-27T05:47:35.106Z,4.60
2017-12-27T05:50:02.591Z,4.50
2017-12-27T05:52:30.057Z,4.60
2017-12-27T05:54:57.534Z,4.60
2017-12-27T05:57:24.993Z,4.70
2017-12-27T05:59:52.455Z,4.70
2017-12-27T06:02:19.917Z,4.70
2017-12-27T06:04:47.397Z,4.60
2017-12-27T06:07:14.852Z,4.70
2017-12-27T06:09:42.308Z,4.70
2017-12-27T06:12:09.770Z,4.70
2017-12-27T06:14:37.253Z,4.80
2017-12-27T06:17:04.704Z,4.80
2017-12-27T06:19:32.209Z,4.80
2017-12-27T06:21:59.665Z,4.80
2017-12-27T06:24:27.154Z,4.80
2017-12-27T06:26:54.623Z,4.80
2017-12-27T06:29:22.853Z,4.80
2017-12-27T06:31:51.084Z,4.80
2017-12-27T06:34:18.567Z,4.70
2017-12-27T06:36:46.035Z,4.80
2017-12-27T06:39:13.502Z,4.70
2017-12-27T06:41:40.961Z,4.70
2017-12-27T06:44:08.446Z,4.70
2017-12-27T06:46:36.677Z,4.70
2017-12-27T06:49:04.182Z,4.70
2017-12-27T06:51:32.412Z,4.80
2017-12-27T06:53:59.874Z,4.70
2017-12-27T06:56:27.343Z,4.80
2017-12-27T06:58:55.562Z,4.70
2017-12-27T07:01:23.020Z,4.70
2017-12-27T07:03:50.478Z,4.80
2017-12-27T07:06:17.947Z,4.70
2017-12-27T07:26:05.502Z,4.80
2017-12-27T07:28:32.961Z,4.80
2017-12-27T07:31:00.428Z,4.80
2017-12-27T07:33:27.893Z,4.80
2017-12-27T07:35:55.365Z,4.70
2017-12-27T07:38:22.827Z,4.80
2017-12-27T07:40:50.294Z,4.80
2017-12-27T07:43:17.753Z,4.80
2017-12-27T07:45:45.229Z,4.80
2017-12-27T07:48:13.456Z,4.80
2017-12-27T07:50:40.918Z,4.80
2017-12-27T07:53:08.379Z,4.80
2017-12-27T07:55:35.876Z,4.80
2017-12-27T07:58:03.337Z,4.80
2017-12-27T08:00:30.802Z,4.80
2017-12-27T08:20:16.989Z,4.80
2017-12-27T08:22:44.472Z,4.80
2017-12-27T08:25:11.932Z,4.90
2017-12-27T08:44:56.068Z,4.90
2017-12-27T08:47:23.527Z,4.90
2017-12-27T08:49:51.021Z,4.90
2017-12-27T09:09:35.339Z,5.20
2017-12-27T09:12:03.622Z,5.20
2017-12-27T09:14:31.145Z,5.20
2017-12-27T09:16:58.601Z,5.30
2017-12-27T09:19:26.082Z,5.40
2017-12-27T09:21:53.554Z,5.50
2017-12-27T09:24:21.020Z,5.50
2017-12-27T09:26:48.491Z,5.60
2017-12-27T09:29:16.730Z,5.80
2017-12-27T09:31:44.205Z,5.80
2017-12-27T09:34:12.441Z,5.90
2017-12-27T09:36:39.885Z,5.80
2017-12-27T09:39:07.374Z,5.90
2017-12-27T09:41:34.836Z,6.00
2017-12-27T09:44:02.295Z,6.00
2017-12-27T09:46:29.781Z,6.10
2017-12-27T09:48:57.231Z,6.10
2017-12-27T09:51:24.712Z,6.10
2017-12-27T09:53:52.189Z,6.10
2017-12-27T09:56:19.671Z,6.10
2017-12-27T09:58:47.904Z,6.20
2017-12-27T10:01:15.372Z,6.20
2017-12-27T10:03:42.843Z,6.20
2017-12-27T10:06:10.331Z,6.30
2017-12-27T10:08:37.785Z,6.30
2017-12-27T10:11:05.247Z,6.30
2017-12-27T10:13:32.716Z,6.40
2017-12-27T10:16:00.178Z,6.40
2017-12-27T10:18:27.645Z,6.50
2017-12-27T10:20:55.106Z,6.50
2017-12-27T10:40:39.377Z,7.00
2017-12-27T10:43:06.861Z,7.10
2017-12-27T10:45:34.340Z,7.10
2017-12-27T10:48:02.579Z,7.00
2017-12-27T10:50:30.047Z,7.00
2017-12-27T10:52:57.527Z,7.00
2017-12-27T10:55:25.001Z,7.00
2017-12-27T10:57:53.244Z,7.00
2017-12-27T11:00:20.710Z,7.00
2017-12-27T11:02:48.172Z,7.10
2017-12-27T11:05:15.648Z,7.00
2017-12-27T11:07:43.105Z,7.10
2017-12-27T11:10:10.576Z,7.10
2017-12-27T11:12:38.048Z,7.10
2017-12-27T11:15:05.531Z,7.10
2017-12-27T11:17:33.761Z,7.10
2017-12-27T11:20:01.270Z,7.10
2017-12-27T11:22:29.506Z,7.10
2017-12-27T11:24:56.948Z,7.10
2017-12-27T11:27:24.434Z,7.10
2017-12-27T11:29:52.316Z,7.20
2017-12-27T11:32:20.579Z,7.20
2017-12-27T11:34:48.047Z,7.10
2017-12-27T11:37:15.510Z,7.20
2017-12-27T11:39:42.962Z,7.20
2017-12-27T11:42:10.456Z,7.20
2017-12-27T11:44:37.910Z,7.20
2017-12-27T11:47:05.380Z,7.20
2017-12-27T11:49:32.825Z,7.20
2017-12-27T11:52:00.296Z,7.20
2017-12-27T11:54:28.516Z,7.20
2017-12-27T11:56:56.768Z,7.20
2017-12-27T11:59:24.242Z,7.20
2017-12-27T12:01:51.685Z,7.20
2017-12-27T12:04:19.163Z,7.20
2017-12-27T12:06:46.638Z,7.20
2017-12-27T12:09:14.889Z,7.20
2017-12-27T12:11:42.349Z,7.20
2017-12-27T12:14:11.132Z,7.30
2017-12-27T12:33:58.820Z,7.40
2017-12-27T12:36:26.298Z,7.50
2017-12-27T12:38:53.757Z,7.50
2017-12-27T12:41:21.240Z,7.50
2017-12-27T12:43:48.689Z,7.50
2017-12-27T12:46:16.174Z,7.50
2017-12-27T12:48:44.409Z,7.50
2017-12-27T12:51:12.631Z,7.50
2017-12-27T12:53:40.874Z,7.50
2017-12-27T12:56:09.117Z,7.50
2017-12-27T12:58:36.585Z,7.50
2017-12-27T13:01:04.059Z,7.50
2017-12-27T13:03:31.528Z,7.50
2017-12-27T13:05:58.989Z,7.50
2017-12-27T13:08:26.469Z,7.50
2017-12-27T13:10:54.713Z,7.50
2017-12-27T13:13:22.200Z,7.50
2017-12-27T13:15:49.682Z,7.50
2017-12-27T13:18:17.921Z,7.60
2017-12-27T13:20:45.376Z,7.60
2017-12-27T13:23:12.828Z,7.60
2017-12-27T13:25:40.316Z,7.60
2017-12-27T13:28:07.785Z,7.60
2017-12-27T13:30:35.262Z,7.60
2017-12-27T13:33:03.494Z,7.60
2017-12-27T13:35:31.731Z,7.50
2017-12-27T13:37:59.197Z,7.50
2017-12-27T13:40:26.667Z,7.50
2017-12-27T13:42:54.108Z,7.60
2017-12-27T13:45:21.588Z,7.50
2017-12-27T13:47:49.061Z,7.50
2017-12-27T13:50:17.333Z,7.50
2017-12-27T13:52:44.792Z,7.50
2017-12-27T13:55:12.245Z,7.50
2017-12-27T13:57:39.716Z,7.50
2017-12-27T14:00:07.175Z,7.50
2017-12-27T14:19:50.555Z,7.40
2017-12-27T14:22:18.017Z,7.50
2017-12-27T14:24:45.496Z,7.50
2017-12-27T14:27:12.961Z,7.50
2017-12-27T14:29:41.210Z,7.70
2017-12-27T14:32:08.669Z,7.70
2017-12-27T14:34:36.140Z,7.60
2017-12-27T14:37:03.599Z,7.50
2017-12-27T14:39:31.081Z,7.50
2017-12-27T14:41:58.551Z,7.50
2017-12-27T15:01:42.950Z,7.40
2017-12-27T15:04:10.409Z,7.40
2017-12-27T15:06:37.888Z,7.40
2017-12-27T15:09:05.362Z,7.40
2017-12-27T15:11:33.568Z,7.40
2017-12-27T15:14:01.041Z,7.40
2017-12-27T15:16:28.515Z,7.40
2017-12-27T15:18:55.978Z,7.40
2017-12-27T15:21:23.440Z,7.40
2017-12-27T15:23:50.954Z,7.40
2017-12-27T15:26:19.190Z,7.30
2017-12-27T15:28:46.656Z,7.30
2017-12-27T15:31:14.133Z,7.30
2017-12-27T15:33:41.656Z,7.30
2017-12-27T15:36:09.128Z,7.30
2017-12-27T15:38:36.597Z,7.30
2017-12-27T15:41:04.075Z,7.30
2017-12-27T15:43:32.297Z,7.20
2017-12-27T15:46:00.537Z,7.10
2017-12-27T15:48:28.004Z,7.10
2017-12-27T15:50:55.488Z,7.00
2017-12-27T15:53:22.968Z,7.00
2017-12-27T15:55:51.200Z,7.00
2017-12-27T15:58:18.680Z,7.00
2017-12-27T16:00:46.175Z,7.00
2017-12-27T16:03:14.398Z,6.90
2017-12-27T16:05:41.870Z,6.90
2017-12-27T16:08:10.150Z,6.90
2017-12-27T16:10:37.604Z,6.90
2017-12-27T16:13:05.080Z,6.90
2017-12-27T16:15:32.562Z,6.70
2017-12-27T16:18:00.025Z,6.70
2017-12-27T16:20:27.508Z,6.60
2017-12-27T16:25:29.587Z,6.50
2017-12-27T16:27:57.817Z,6.60
2017-12-27T16:30:25.296Z,6.50
2017-12-27T16:50:09.273Z,6.60
2017-12-27T16:52:36.741Z,6.70
2017-12-27T16:55:04.259Z,6.70
2017-12-27T16:57:32.504Z,6.70
2017-12-27T16:59:59.954Z,6.70
2017-12-27T17:02:28.185Z,6.80
2017-12-27T17:04:56.463Z,6.80
2017-12-27T17:07:24.742Z,6.80
2017-12-27T17:09:53.010Z,6.80
2017-12-27T17:12:20.483Z,6.70
2017-12-27T17:14:48.758Z,6.70
2017-12-27T17:17:16.271Z,6.70
2017-12-27T17:19:43.716Z,6.70
2017-12-27T17:22:11.193Z,6.80
2017-12-27T17:24:38.706Z,6.80
2017-12-27T17:27:06.216Z,6.80
2017-12-27T17:29:33.704Z,6.80
2017-12-27T17:32:01.216Z,6.70
2017-12-27T17:34:28.687Z,6.70
2017-12-27T17:36:56.186Z,6.70
2017-12-27T17:39:23.722Z,6.70
2017-12-27T17:41:51.212Z,6.70
2017-12-27T17:44:18.695Z,6.70
2017-12-27T17:46:46.214Z,6.70
2017-12-27T17:49:13.716Z,6.60
2017-12-27T17:51:41.173Z,6.60
2017-12-27T17:54:08.682Z,6.50
2017-12-27T17:56:36.939Z,6.50
2017-12-27T17:59:04.459Z,6.50
2017-12-27T18:18:48.520Z,6.50
2017-12-27T18:21:16.800Z,6.40
2017-12-27T18:23:45.075Z,6.40
2017-12-27T18:26:13.345Z,6.40
2017-12-27T18:28:40.845Z,6.40
2017-12-27T18:31:08.346Z,6.40
2017-12-27T18:36:09.473Z,6.40
2017-12-27T18:38:36.989Z,6.30
2017-12-27T18:41:04.513Z,6.30
2017-12-27T18:43:32.058Z,6.30
2017-12-27T18:45:59.555Z,6.30
2017-12-27T18:48:27.597Z,6.30
2017-12-27T18:50:55.125Z,6.20
2017-12-27T18:55:56.455Z,6.20
2017-12-27T18:58:23.970Z,6.20
2017-12-27T19:00:52.260Z,6.20
2017-12-27T19:03:19.781Z,6.20
2017-12-27T19:23:04.885Z,6.00
2017-12-27T19:42:49.458Z,5.90
2017-12-27T19:45:17.734Z,5.80
2017-12-27T20:05:03.085Z,5.70
2017-12-27T20:07:30.600Z,5.60
2017-12-27T20:09:58.134Z,5.60
2017-12-27T20:12:25.634Z,5.60
2017-12-27T20:14:53.173Z,5.60
2017-12-27T20:17:20.712Z,5.60
2017-12-27T20:19:48.221Z,5.50
2017-12-27T20:39:32.311Z,5.40
2017-12-27T20:41:59.824Z,5.30
2017-12-27T20:44:27.339Z,5.40
2017-12-27T20:46:54.868Z,5.30
2017-12-27T20:49:22.394Z,5.30
2017-12-27T20:51:50.676Z,5.20
2017-12-27T20:54:18.952Z,5.20
2017-12-27T20:56:46.474Z,5.20
2017-12-27T20:59:13.999Z,5.20
2017-12-27T21:01:42.270Z,5.20
2017-12-27T21:04:09.798Z,5.20
2017-12-27T21:06:37.318Z,5.20
2017-12-27T21:09:05.603Z,5.20
2017-12-27T21:11:34.041Z,5.20
2017-12-27T21:14:03.553Z,5.20
2017-12-27T21:16:31.064Z,5.20
2017-12-27T21:18:58.574Z,5.10
2017-12-27T21:21:26.089Z,5.20
2017-12-27T21:23:53.597Z,5.20
2017-12-27T21:26:21.105Z,5.20
2017-12-27T21:28:48.612Z,5.20
2017-12-27T21:31:16.122Z,5.10
2017-12-27T21:33:44.401Z,5.10
2017-12-27T21:36:12.918Z,5.10
2017-12-27T21:38:40.436Z,5.00
2017-12-27T21:41:07.943Z,5.10
2017-12-27T21:43:35.463Z,5.00
2017-12-27T21:46:02.995Z,5.00
2017-12-27T21:48:36.115Z,5.00
2017-12-27T21:51:03.645Z,4.90
2017-12-27T21:53:31.172Z,5.00
2017-12-27T21:55:58.708Z,4.90
2017-12-27T21:58:31.822Z,4.90
2017-12-27T22:01:05.790Z,4.90
2017-12-27T22:03:33.309Z,4.90
2017-12-27T22:06:00.824Z,4.90
2017-12-27T22:08:28.360Z,4.90
2017-12-27T22:10:55.878Z,4.90
2017-12-27T22:13:24.166Z,4.80
2017-12-27T22:15:52.454Z,4.80
2017-12-27T22:18:20.747Z,4.80
2017-12-27T22:20:53.967Z,4.80
2017-12-27T22:23:21.491Z,4.80
2017-12-27T22:25:49.767Z,4.80
2017-12-27T22:28:18.041Z,4.80
2017-12-27T22:30:46.322Z,4.80
2017-12-27T22:33:13.874Z,4.80
2017-12-27T22:35:42.161Z,4.80
2017-12-27T22:38:09.675Z,4.80
2017-12-27T22:40:37.211Z,4.70
2017-12-27T22:43:04.750Z,4.70
2017-12-27T22:45:32.293Z,4.70
2017-12-27T22:47:59.793Z,4.70
2017-12-27T22:50:28.080Z,4.70
2017-12-27T22:52:56.356Z,4.70
2017-12-27T22:55:24.615Z,4.60
2017-12-27T22:57:52.136Z,4.60
2017-12-27T23:00:21.309Z,4.70
2017-12-27T23:02:48.925Z,4.70
2017-12-27T23:05:16.449Z,4.70
2017-12-27T23:07:44.728Z,4.60
2017-12-27T23:10:12.224Z,4.70
2017-12-27T23:12:39.747Z,4.60
2017-12-27T23:15:07.262Z,4.70
2017-12-27T23:17:34.776Z,4.60
2017-12-27T23:20:02.292Z,4.60
2017-12-27T23:22:29.785Z,4.60
2017-12-27T23:24:57.310Z,4.60
2017-12-27T23:27:24.822Z,4.60
2017-12-27T23:29:52.381Z,4.50
2017-12-27T23:32:19.887Z,4.60
2017-12-27T23:34:47.748Z,4.60
2017-12-27T23:37:16.006Z,4.60
2017-12-27T23:39:43.512Z,4.60
2017-12-27T23:42:11.025Z,4.60
2017-12-27T23:44:38.536Z,4.60
2017-12-27T23:47:06.038Z,4.60
2017-12-27T23:49:33.539Z,4.60
2017-12-27T23:52:01.812Z,4.60
2017-12-27T23:54:30.106Z,4.60
2017-12-27T23:56:58.381Z,4.60
2017-12-27T23:59:26.634Z,4.50
